Accueil
METAR-TAF:

METAR-TAF

Aéroports :

Londres-Southend, Angleterre

Aéroport de Londres-Southend

latitude: 51-34N, longitude: 000-42E, altitude: 15 m

Observation

Le bulletin a été fait il y a 18 minutes, à 15:20 UTC
Vent 16 kt de ouest/sud-ouest
Température 24°C
Humidité 41%
Pression 1015 hPa
Visibilité 10 km ou plus
Nuages épars à une hauteur de 4800 ft

METAR: EGMC 231520Z 25016KT 9999 SCT048 24/10 Q1015

Heure: 16:38 (15:38 UTC)

Prévision

Le bulletin a été fait il y a 1 heure et 35 minutes, à 14:03 UTC
Prévision valable du 23 à 15 UTC au 23 à 24 UTC
Vent 14 kt de ouest/sud-ouest
Visibilité 10 km ou plus
Quelques nuages à une hauteur de 3000 ft

TAF: EGMC 231403Z 2315/2324 25014KT 9999 FEW030

Observations et prévisions météorologiques de plus de 4000 aéroports (messages METAR et TAF).

Les stations disponibles sont représentées par des disques jaunes et rouges sur la carte.

Passer la souris dessus pour voir le nom de la station.

Cliquer dessus pour voir les observations et prévisions météorologiques.

Pour changer de carte: cliquez sur les boutons verts avec une croix noire pour zoomer, sur le bouton vert avec un tiret pour effectuer un zoom arrière, ou sur les flèches vertes pour les cartes adjacentes.


METAR-TAF: